createdAt,value
2022-08-02T00:02:47.150Z,100.00
2022-08-02T00:07:52.142Z,100.00
2022-08-02T00:12:55.861Z,100.00
2022-08-02T00:17:59.830Z,100.00
2022-08-02T00:23:04.932Z,100.00
2022-08-02T00:28:08.646Z,100.00
2022-08-02T00:33:12.277Z,100.00
2022-08-02T00:38:17.592Z,100.00
2022-08-02T00:43:21.207Z,100.00
2022-08-02T00:48:25.017Z,100.00
2022-08-02T00:53:30.153Z,100.00
2022-08-02T00:58:33.903Z,100.00
2022-08-02T01:03:37.521Z,100.00
2022-08-02T01:08:43.270Z,100.00
2022-08-02T01:13:48.032Z,100.00
2022-08-02T01:18:55.452Z,100.00
2022-08-02T01:24:13.271Z,100.00
2022-08-02T01:29:25.120Z,100.00
2022-08-02T01:34:35.228Z,100.00
2022-08-02T01:39:41.867Z,100.00
2022-08-02T01:44:48.336Z,100.00
2022-08-02T01:49:58.008Z,100.00
2022-08-02T01:55:07.048Z,100.00
2022-08-02T02:00:17.231Z,100.00
2022-08-02T02:05:22.302Z,100.00
2022-08-02T02:10:28.949Z,100.00
2022-08-02T02:15:35.575Z,100.00
2022-08-02T02:20:44.333Z,100.00
2022-08-02T02:25:50.447Z,100.00
2022-08-02T02:31:01.969Z,100.00
2022-08-02T02:36:09.532Z,100.00
2022-08-02T02:41:15.204Z,100.00
2022-08-02T02:46:22.746Z,100.00
2022-08-02T02:51:28.149Z,100.00
2022-08-02T02:56:32.384Z,100.00
2022-08-02T03:01:57.076Z,100.00
2022-08-02T03:07:02.239Z,100.00
2022-08-02T03:12:07.377Z,100.00
2022-08-02T03:17:12.466Z,100.00
2022-08-02T03:22:16.154Z,100.00
2022-08-02T03:27:19.763Z,100.00
2022-08-02T03:32:25.738Z,100.00
2022-08-02T03:37:31.163Z,100.00
2022-08-02T03:42:35.054Z,100.00
2022-08-02T03:47:41.594Z,100.00
2022-08-02T03:52:47.751Z,100.00
2022-08-02T03:57:51.504Z,100.00
2022-08-02T04:02:56.536Z,100.00
2022-08-02T04:08:33.850Z,100.00
2022-08-02T04:13:29.857Z,100.00
2022-08-02T04:18:42.087Z,100.00
2022-08-02T04:23:48.907Z,100.00
2022-08-02T04:28:53.634Z,100.00
2022-08-02T04:33:59.057Z,100.00
2022-08-02T04:39:03.089Z,100.00
2022-08-02T04:44:06.986Z,100.00
2022-08-02T04:49:13.089Z,100.00
2022-08-02T04:54:16.804Z,100.00
2022-08-02T04:59:20.541Z,100.00
2022-08-02T05:04:25.568Z,100.00
2022-08-02T05:09:29.447Z,100.00
2022-08-02T05:14:33.005Z,100.00
2022-08-02T05:19:38.054Z,100.00
2022-08-02T05:24:46.093Z,100.00
2022-08-02T05:29:51.191Z,100.00
2022-08-02T05:34:58.330Z,100.00
2022-08-02T05:40:02.013Z,100.00
2022-08-02T05:45:07.079Z,100.00
2022-08-02T05:50:12.373Z,100.00
2022-08-02T05:55:19.462Z,100.00
2022-08-02T06:00:23.657Z,100.00
2022-08-02T06:05:33.545Z,100.00
2022-08-02T06:10:38.853Z,100.00
2022-08-02T06:15:52.647Z,100.00
2022-08-02T06:22:31.754Z,93.60
2022-08-02T06:26:25.362Z,88.10
2022-08-02T06:31:29.116Z,83.58
2022-08-02T06:36:42.158Z,75.54
2022-08-02T06:41:50.697Z,73.18
2022-08-02T06:47:11.722Z,70.32
2022-08-02T06:52:19.277Z,68.21
2022-08-02T06:57:23.755Z,64.77
2022-08-02T07:02:27.419Z,62.85
2022-08-02T07:07:32.881Z,67.34
2022-08-02T07:12:37.493Z,60.85
2022-08-02T07:17:41.229Z,63.73
2022-08-02T07:22:46.189Z,61.17
2022-08-02T07:27:49.953Z,63.79
2022-08-02T07:32:53.506Z,64.99
2022-08-02T07:38:02.300Z,64.03
2022-08-02T07:43:06.210Z,62.30
2022-08-02T07:48:10.295Z,60.96
2022-08-02T07:53:15.656Z,59.88
2022-08-02T07:58:19.942Z,58.71
2022-08-02T08:03:26.764Z,59.98
2022-08-02T08:08:32.342Z,58.76
2022-08-02T08:13:36.239Z,56.76
2022-08-02T08:18:40.667Z,55.03
2022-08-02T08:23:45.994Z,58.27
2022-08-02T08:28:50.125Z,54.99
2022-08-02T08:33:53.778Z,55.19
2022-08-02T08:38:58.784Z,53.79
2022-08-02T08:44:04.427Z,54.92
2022-08-02T08:49:23.152Z,50.94
2022-08-02T08:54:30.469Z,50.31
2022-08-02T08:59:39.319Z,47.07
2022-08-02T09:04:43.376Z,47.64
2022-08-02T09:10:00.023Z,47.71
2022-08-02T09:15:06.505Z,47.38
2022-08-02T09:20:11.525Z,46.58
2022-08-02T09:25:18.345Z,47.61
2022-08-02T09:30:22.472Z,43.68
2022-08-02T09:36:06.076Z,42.35
2022-08-02T09:41:03.219Z,40.87
2022-08-02T09:46:15.041Z,41.41
2022-08-02T09:51:20.860Z,39.85
2022-08-02T09:56:35.147Z,37.24
2022-08-02T10:01:45.144Z,39.22
2022-08-02T10:06:56.355Z,38.04
2022-08-02T10:12:03.482Z,37.55
2022-08-02T10:17:09.246Z,34.62
2022-08-02T10:22:16.293Z,34.62
2022-08-02T10:27:26.235Z,33.82
2022-08-02T10:32:34.906Z,34.60
2022-08-02T10:37:41.901Z,33.60
2022-08-02T10:42:48.838Z,33.88
2022-08-02T10:48:04.229Z,35.34
2022-08-02T10:53:27.717Z,35.44
2022-08-02T10:58:34.538Z,36.29
2022-08-02T11:03:41.000Z,35.25
2022-08-02T11:08:45.075Z,32.24
2022-08-02T11:14:03.781Z,32.46
2022-08-02T11:19:07.694Z,32.11
2022-08-02T11:24:29.477Z,33.09
2022-08-02T11:29:38.391Z,34.93
2022-08-02T11:34:44.808Z,33.56
2022-08-02T11:39:52.943Z,33.94
2022-08-02T11:44:58.173Z,33.00
2022-08-02T11:50:08.989Z,34.74
2022-08-02T11:55:14.049Z,33.13
2022-08-02T12:00:20.195Z,33.06
2022-08-02T12:05:44.696Z,32.64
2022-08-02T12:10:50.125Z,32.75
2022-08-02T12:16:15.834Z,34.06
2022-08-02T12:21:24.160Z,34.91
2022-08-02T12:26:28.372Z,33.90
2022-08-02T12:31:56.490Z,34.55
2022-08-02T12:37:05.291Z,32.99
2022-08-02T12:42:11.585Z,32.56
2022-08-02T12:47:17.647Z,31.88
2022-08-02T12:52:26.504Z,33.97
2022-08-02T12:57:30.858Z,33.15
2022-08-02T13:02:36.170Z,32.50
2022-08-02T13:07:40.777Z,30.33
2022-08-02T13:12:46.087Z,31.81
2022-08-02T13:17:51.667Z,31.28
2022-08-02T13:22:56.551Z,31.15
2022-08-02T13:28:10.923Z,31.58
2022-08-02T13:33:18.000Z,30.52
2022-08-02T13:38:24.986Z,31.64
2022-08-02T13:43:53.606Z,31.18
2022-08-02T13:48:55.804Z,32.45
2022-08-02T13:54:01.166Z,31.75
2022-08-02T13:59:21.903Z,31.42
2022-08-02T14:04:31.940Z,31.58
2022-08-02T14:09:37.940Z,32.10
2022-08-02T14:14:45.897Z,31.90
2022-08-02T14:19:52.685Z,31.20
2022-08-02T14:24:56.703Z,30.84
2022-08-02T14:30:00.775Z,31.86
2022-08-02T14:35:07.644Z,32.60
2022-08-02T14:40:31.182Z,32.36
2022-08-02T14:45:37.001Z,31.94
2022-08-02T14:50:47.881Z,30.64
2022-08-02T14:55:51.996Z,30.54
2022-08-02T15:00:56.907Z,30.68
2022-08-02T15:06:03.350Z,30.42
2022-08-02T15:11:08.652Z,31.40
2022-08-02T15:16:12.990Z,32.22
2022-08-02T15:21:40.371Z,32.85
2022-08-02T15:26:43.313Z,34.05
2022-08-02T15:31:47.494Z,33.82
2022-08-02T15:36:52.451Z,32.16
2022-08-02T15:41:56.477Z,32.13
2022-08-02T15:47:00.844Z,31.85
2022-08-02T15:52:07.016Z,32.26
2022-08-02T15:57:11.198Z,33.12
2022-08-02T16:02:16.456Z,33.18
2022-08-02T16:07:22.202Z,34.28
2022-08-02T16:12:32.498Z,34.69
2022-08-02T16:17:48.287Z,34.56
2022-08-02T16:22:59.366Z,34.48
2022-08-02T16:28:08.929Z,34.15
2022-08-02T16:33:13.575Z,34.27
2022-08-02T16:38:19.166Z,35.30
2022-08-02T16:43:23.599Z,37.12
2022-08-02T16:48:31.543Z,37.85
2022-08-02T16:53:59.780Z,35.68
2022-08-02T16:59:02.478Z,38.35
2022-08-02T17:04:06.427Z,36.79
2022-08-02T17:09:11.919Z,37.06
2022-08-02T17:14:54.525Z,40.80
2022-08-02T17:19:59.384Z,40.65
2022-08-02T17:25:06.637Z,40.79
2022-08-02T17:30:15.952Z,42.27
2022-08-02T17:35:43.437Z,41.59
2022-08-02T17:40:55.153Z,42.99
2022-08-02T17:46:00.419Z,44.66
2022-08-02T17:51:06.304Z,42.83
2022-08-02T17:56:11.545Z,45.71
2022-08-02T18:01:24.175Z,46.30
2022-08-02T18:06:28.508Z,46.58
2022-08-02T18:11:52.411Z,46.46
2022-08-02T18:16:57.756Z,50.49
2022-08-02T18:22:03.582Z,51.06
2022-08-02T18:27:09.460Z,51.68
2022-08-02T18:32:13.548Z,54.79
2022-08-02T18:37:17.713Z,51.49
2022-08-02T18:42:22.943Z,51.96
2022-08-02T18:47:26.778Z,53.53
2022-08-02T18:52:38.132Z,57.32
2022-08-02T18:58:17.499Z,57.75
2022-08-02T19:03:09.264Z,61.34
2022-08-02T19:08:13.924Z,61.40
2022-08-02T19:13:20.385Z,62.46
2022-08-02T19:18:26.710Z,63.61
2022-08-02T19:23:33.826Z,65.46
2022-08-02T19:28:39.551Z,67.73
2022-08-02T19:34:06.687Z,66.85
2022-08-02T19:39:10.026Z,69.93
2022-08-02T19:44:29.315Z,73.58
2022-08-02T19:49:40.355Z,73.17
2022-08-02T19:54:55.356Z,71.49
2022-08-02T20:00:01.929Z,73.82
2022-08-02T20:05:16.278Z,75.29
2022-08-02T20:10:30.080Z,76.26
2022-08-02T20:15:55.919Z,75.32
2022-08-02T20:21:01.288Z,75.81
2022-08-02T20:26:06.393Z,75.50
2022-08-02T20:31:14.121Z,74.80
2022-08-02T20:36:19.067Z,74.44
2022-08-02T20:41:23.612Z,76.01
2022-08-02T20:46:43.802Z,76.77
2022-08-02T20:51:47.613Z,77.77
2022-08-02T20:56:52.419Z,79.17
2022-08-02T21:01:58.295Z,78.27
2022-08-02T21:07:02.185Z,81.28
2022-08-02T21:12:12.481Z,79.44
2022-08-02T21:17:22.472Z,81.69
2022-08-02T21:22:40.489Z,81.63
2022-08-02T21:27:52.593Z,81.07
2022-08-02T21:32:58.689Z,81.24
2022-08-02T21:38:03.990Z,81.94
2022-08-02T21:43:08.994Z,82.15
2022-08-02T21:48:14.138Z,82.48
2022-08-02T21:53:18.925Z,82.96
2022-08-02T21:58:41.373Z,84.45
2022-08-02T22:03:55.809Z,85.24
2022-08-02T22:08:59.742Z,87.04
2022-08-02T22:14:03.390Z,86.91
2022-08-02T22:19:08.442Z,86.81
2022-08-02T22:24:12.790Z,87.27
2022-08-02T22:29:17.016Z,88.41
2022-08-02T22:34:36.963Z,88.34
2022-08-02T22:40:08.877Z,89.06
2022-08-02T22:45:11.592Z,90.78
2022-08-02T22:50:17.544Z,91.05
2022-08-02T22:55:21.487Z,92.47
2022-08-02T23:00:27.637Z,91.27
2022-08-02T23:05:32.724Z,92.18
2022-08-02T23:10:37.169Z,98.55
2022-08-02T23:16:01.531Z,96.84
2022-08-02T23:21:06.410Z,95.23
2022-08-02T23:26:10.021Z,100.00
2022-08-02T23:31:38.018Z,98.42
2022-08-02T23:36:43.198Z,97.26
2022-08-02T23:41:49.313Z,97.06
2022-08-02T23:47:00.441Z,96.61
2022-08-02T23:52:05.828Z,99.05
2022-08-02T23:57:20.579Z,100.00
